sensor_id;sensor_type;location;lat;lon;timestamp;P1;durP1;ratioP1;P2;durP2;ratioP2
42246;SDS011;27913;42.722;23.268;2023-04-03T00:03:23;7.15;;;2.10;;
42246;SDS011;27913;42.722;23.268;2023-04-03T00:05:48;7.47;;;2.45;;
42246;SDS011;27913;42.722;23.268;2023-04-03T00:08:14;8.38;;;2.90;;
42246;SDS011;27913;42.722;23.268;2023-04-03T00:10:40;7.13;;;3.08;;
42246;SDS011;27913;42.722;23.268;2023-04-03T00:13:05;11.10;;;2.72;;
42246;SDS011;27913;42.722;23.268;2023-04-03T00:15:33;4.90;;;2.03;;
42246;SDS011;27913;42.722;23.268;2023-04-03T00:17:59;7.85;;;1.85;;
42246;SDS011;27913;42.722;23.268;2023-04-03T00:20:25;6.93;;;2.35;;
42246;SDS011;27913;42.722;23.268;2023-04-03T00:22:51;10.05;;;3.40;;
42246;SDS011;27913;42.722;23.268;2023-04-03T00:25:16;8.63;;;3.22;;
42246;SDS011;27913;42.722;23.268;2023-04-03T00:27:42;8.68;;;2.83;;
42246;SDS011;27913;42.722;23.268;2023-04-03T00:30:08;8.20;;;3.03;;
42246;SDS011;27913;42.722;23.268;2023-04-03T00:32:37;11.63;;;3.13;;
42246;SDS011;27913;42.722;23.268;2023-04-03T00:35:03;8.45;;;2.78;;
42246;SDS011;27913;42.722;23.268;2023-04-03T00:37:29;9.45;;;2.55;;
42246;SDS011;27913;42.722;23.268;2023-04-03T00:39:54;8.95;;;2.92;;
42246;SDS011;27913;42.722;23.268;2023-04-03T00:42:20;7.55;;;2.30;;
42246;SDS011;27913;42.722;23.268;2023-04-03T00:47:11;7.32;;;2.33;;
42246;SDS011;27913;42.722;23.268;2023-04-03T00:49:41;6.97;;;2.22;;
42246;SDS011;27913;42.722;23.268;2023-04-03T00:52:08;6.53;;;2.25;;
42246;SDS011;27913;42.722;23.268;2023-04-03T00:57:05;7.80;;;2.28;;
42246;SDS011;27913;42.722;23.268;2023-04-03T00:59:34;8.73;;;2.88;;
42246;SDS011;27913;42.722;23.268;2023-04-03T01:02:03;15.90;;;6.25;;
42246;SDS011;27913;42.722;23.268;2023-04-03T01:07:09;8.05;;;2.50;;
42246;SDS011;27913;42.722;23.268;2023-04-03T01:09:39;6.47;;;2.00;;
42246;SDS011;27913;42.722;23.268;2023-04-03T01:12:15;10.32;;;2.92;;
42246;SDS011;27913;42.722;23.268;2023-04-03T01:14:46;17.13;;;6.20;;
42246;SDS011;27913;42.722;23.268;2023-04-03T01:17:29;15.27;;;4.57;;
42246;SDS011;27913;42.722;23.268;2023-04-03T01:25:39;4.40;;;1.88;;
42246;SDS011;27913;42.722;23.268;2023-04-03T01:28:06;5.22;;;1.48;;
42246;SDS011;27913;42.722;23.268;2023-04-03T01:30:39;3.92;;;1.30;;
42246;SDS011;27913;42.722;23.268;2023-04-03T01:33:13;5.03;;;1.15;;
42246;SDS011;27913;42.722;23.268;2023-04-03T01:35:39;6.57;;;1.17;;
42246;SDS011;27913;42.722;23.268;2023-04-03T01:38:05;5.43;;;1.98;;
42246;SDS011;27913;42.722;23.268;2023-04-03T01:40:30;3.58;;;1.33;;
42246;SDS011;27913;42.722;23.268;2023-04-03T01:42:56;7.57;;;1.45;;
42246;SDS011;27913;42.722;23.268;2023-04-03T01:45:21;4.20;;;1.48;;
42246;SDS011;27913;42.722;23.268;2023-04-03T01:47:47;4.57;;;1.70;;
42246;SDS011;27913;42.722;23.268;2023-04-03T01:50:12;3.47;;;0.90;;
42246;SDS011;27913;42.722;23.268;2023-04-03T01:52:38;1.83;;;0.70;;
42246;SDS011;27913;42.722;23.268;2023-04-03T01:55:03;3.90;;;1.10;;
42246;SDS011;27913;42.722;23.268;2023-04-03T01:57:29;5.80;;;1.30;;
42246;SDS011;27913;42.722;23.268;2023-04-03T01:59:55;3.03;;;0.80;;
42246;SDS011;27913;42.722;23.268;2023-04-03T02:02:20;4.97;;;1.10;;
42246;SDS011;27913;42.722;23.268;2023-04-03T02:04:46;2.85;;;0.93;;
42246;SDS011;27913;42.722;23.268;2023-04-03T02:07:11;2.42;;;0.95;;
42246;SDS011;27913;42.722;23.268;2023-04-03T02:09:37;3.50;;;1.00;;
42246;SDS011;27913;42.722;23.268;2023-04-03T02:12:02;2.00;;;0.80;;
42246;SDS011;27913;42.722;23.268;2023-04-03T02:14:28;43.40;;;15.32;;
42246;SDS011;27913;42.722;23.268;2023-04-03T02:16:53;19.60;;;8.00;;
42246;SDS011;27913;42.722;23.268;2023-04-03T02:19:19;9.13;;;3.40;;
42246;SDS011;27913;42.722;23.268;2023-04-03T02:21:44;19.90;;;7.00;;
42246;SDS011;27913;42.722;23.268;2023-04-03T02:24:10;9.68;;;4.00;;
42246;SDS011;27913;42.722;23.268;2023-04-03T02:26:35;7.40;;;2.80;;
42246;SDS011;27913;42.722;23.268;2023-04-03T02:29:01;4.93;;;1.70;;
42246;SDS011;27913;42.722;23.268;2023-04-03T02:31:26;7.25;;;2.00;;
42246;SDS011;27913;42.722;23.268;2023-04-03T02:33:52;4.70;;;1.85;;
42246;SDS011;27913;42.722;23.268;2023-04-03T02:36:17;7.10;;;1.98;;
42246;SDS011;27913;42.722;23.268;2023-04-03T02:38:43;7.45;;;1.95;;
42246;SDS011;27913;42.722;23.268;2023-04-03T02:41:09;4.07;;;1.52;;
42246;SDS011;27913;42.722;23.268;2023-04-03T02:43:36;5.10;;;1.70;;
42246;SDS011;27913;42.722;23.268;2023-04-03T02:46:02;4.05;;;1.40;;
42246;SDS011;27913;42.722;23.268;2023-04-03T02:48:28;4.05;;;1.50;;
42246;SDS011;27913;42.722;23.268;2023-04-03T02:50:53;4.78;;;1.48;;
42246;SDS011;27913;42.722;23.268;2023-04-03T02:53:19;4.07;;;1.13;;
42246;SDS011;27913;42.722;23.268;2023-04-03T02:55:45;5.43;;;1.45;;
42246;SDS011;27913;42.722;23.268;2023-04-03T02:58:11;5.13;;;1.60;;
42246;SDS011;27913;42.722;23.268;2023-04-03T03:00:36;5.13;;;1.40;;
42246;SDS011;27913;42.722;23.268;2023-04-03T03:03:03;4.90;;;1.50;;
42246;SDS011;27913;42.722;23.268;2023-04-03T03:05:28;5.57;;;1.90;;
42246;SDS011;27913;42.722;23.268;2023-04-03T03:07:54;5.82;;;1.77;;
42246;SDS011;27913;42.722;23.268;2023-04-03T03:10:20;6.13;;;1.63;;
42246;SDS011;27913;42.722;23.268;2023-04-03T03:12:45;3.10;;;1.15;;
42246;SDS011;27913;42.722;23.268;2023-04-03T03:15:11;4.18;;;1.30;;
42246;SDS011;27913;42.722;23.268;2023-04-03T03:17:37;4.32;;;1.65;;
42246;SDS011;27913;42.722;23.268;2023-04-03T03:20:03;5.57;;;2.08;;
42246;SDS011;27913;42.722;23.268;2023-04-03T03:22:30;4.28;;;1.48;;
42246;SDS011;27913;42.722;23.268;2023-04-03T03:24:55;4.32;;;1.38;;
42246;SDS011;27913;42.722;23.268;2023-04-03T03:27:21;4.07;;;1.50;;
42246;SDS011;27913;42.722;23.268;2023-04-03T03:29:46;15.63;;;2.65;;
42246;SDS011;27913;42.722;23.268;2023-04-03T03:32:12;9.65;;;2.92;;
42246;SDS011;27913;42.722;23.268;2023-04-03T03:34:38;6.03;;;2.00;;
42246;SDS011;27913;42.722;23.268;2023-04-03T03:37:03;5.85;;;2.22;;
42246;SDS011;27913;42.722;23.268;2023-04-03T03:39:29;10.50;;;3.90;;
42246;SDS011;27913;42.722;23.268;2023-04-03T03:41:55;10.15;;;3.80;;
42246;SDS011;27913;42.722;23.268;2023-04-03T03:44:20;13.05;;;4.22;;
42246;SDS011;27913;42.722;23.268;2023-04-03T03:46:46;16.73;;;5.72;;
42246;SDS011;27913;42.722;23.268;2023-04-03T03:49:12;15.52;;;5.70;;
42246;SDS011;27913;42.722;23.268;2023-04-03T03:51:38;17.48;;;4.93;;
42246;SDS011;27913;42.722;23.268;2023-04-03T03:54:04;13.40;;;4.63;;
42246;SDS011;27913;42.722;23.268;2023-04-03T03:56:30;14.35;;;4.88;;
42246;SDS011;27913;42.722;23.268;2023-04-03T03:58:55;16.42;;;5.88;;
42246;SDS011;27913;42.722;23.268;2023-04-03T04:01:21;17.45;;;6.82;;
42246;SDS011;27913;42.722;23.268;2023-04-03T04:03:47;16.73;;;6.78;;
42246;SDS011;27913;42.722;23.268;2023-04-03T04:06:13;17.75;;;5.80;;
42246;SDS011;27913;42.722;23.268;2023-04-03T04:08:38;18.85;;;8.68;;
42246;SDS011;27913;42.722;23.268;2023-04-03T04:11:04;20.40;;;7.40;;
42246;SDS011;27913;42.722;23.268;2023-04-03T04:13:30;17.38;;;6.15;;
42246;SDS011;27913;42.722;23.268;2023-04-03T04:15:56;15.93;;;5.82;;
42246;SDS011;27913;42.722;23.268;2023-04-03T04:18:21;14.82;;;5.07;;
42246;SDS011;27913;42.722;23.268;2023-04-03T04:20:47;7.93;;;3.30;;
42246;SDS011;27913;42.722;23.268;2023-04-03T04:23:13;7.07;;;2.42;;
42246;SDS011;27913;42.722;23.268;2023-04-03T04:25:38;10.95;;;2.67;;
42246;SDS011;27913;42.722;23.268;2023-04-03T04:28:04;8.40;;;2.63;;
42246;SDS011;27913;42.722;23.268;2023-04-03T04:30:30;5.85;;;2.55;;
42246;SDS011;27913;42.722;23.268;2023-04-03T04:32:55;7.22;;;2.97;;
42246;SDS011;27913;42.722;23.268;2023-04-03T04:35:21;21.48;;;7.20;;
42246;SDS011;27913;42.722;23.268;2023-04-03T04:37:46;39.15;;;14.63;;
42246;SDS011;27913;42.722;23.268;2023-04-03T04:40:12;49.22;;;18.23;;
42246;SDS011;27913;42.722;23.268;2023-04-03T04:42:37;29.90;;;11.23;;
42246;SDS011;27913;42.722;23.268;2023-04-03T04:45:03;31.25;;;12.27;;
42246;SDS011;27913;42.722;23.268;2023-04-03T04:47:29;35.13;;;14.52;;
42246;SDS011;27913;42.722;23.268;2023-04-03T04:49:54;65.47;;;22.98;;
42246;SDS011;27913;42.722;23.268;2023-04-03T04:52:20;45.20;;;20.05;;
42246;SDS011;27913;42.722;23.268;2023-04-03T04:54:46;70.90;;;28.27;;
42246;SDS011;27913;42.722;23.268;2023-04-03T04:57:11;24.52;;;9.52;;
42246;SDS011;27913;42.722;23.268;2023-04-03T04:59:36;15.50;;;6.68;;
42246;SDS011;27913;42.722;23.268;2023-04-03T05:02:02;11.65;;;5.18;;
42246;SDS011;27913;42.722;23.268;2023-04-03T05:04:27;9.52;;;3.63;;
42246;SDS011;27913;42.722;23.268;2023-04-03T05:06:53;12.98;;;3.00;;
42246;SDS011;27913;42.722;23.268;2023-04-03T05:09:19;7.18;;;3.20;;
42246;SDS011;27913;42.722;23.268;2023-04-03T05:11:45;6.38;;;3.00;;
42246;SDS011;27913;42.722;23.268;2023-04-03T05:14:11;12.80;;;4.20;;
42246;SDS011;27913;42.722;23.268;2023-04-03T05:16:37;20.00;;;4.97;;
42246;SDS011;27913;42.722;23.268;2023-04-03T05:19:02;15.80;;;4.55;;
42246;SDS011;27913;42.722;23.268;2023-04-03T05:21:28;13.77;;;3.88;;
42246;SDS011;27913;42.722;23.268;2023-04-03T05:23:57;9.70;;;2.85;;
42246;SDS011;27913;42.722;23.268;2023-04-03T05:26:24;5.07;;;2.40;;
42246;SDS011;27913;42.722;23.268;2023-04-03T05:28:51;9.50;;;2.85;;
42246;SDS011;27913;42.722;23.268;2023-04-03T05:31:17;8.25;;;3.28;;
42246;SDS011;27913;42.722;23.268;2023-04-03T05:33:42;14.82;;;4.13;;
42246;SDS011;27913;42.722;23.268;2023-04-03T05:36:08;12.13;;;4.45;;
42246;SDS011;27913;42.722;23.268;2023-04-03T05:38:34;12.18;;;4.47;;
42246;SDS011;27913;42.722;23.268;2023-04-03T05:40:59;11.95;;;4.47;;
42246;SDS011;27913;42.722;23.268;2023-04-03T05:45:52;14.73;;;5.30;;
42246;SDS011;27913;42.722;23.268;2023-04-03T05:48:17;12.90;;;5.30;;
42246;SDS011;27913;42.722;23.268;2023-04-03T05:50:43;14.05;;;5.43;;
42246;SDS011;27913;42.722;23.268;2023-04-03T05:53:19;16.25;;;6.18;;
42246;SDS011;27913;42.722;23.268;2023-04-03T05:55:47;9.65;;;4.00;;
42246;SDS011;27913;42.722;23.268;2023-04-03T05:58:12;16.85;;;5.22;;
42246;SDS011;27913;42.722;23.268;2023-04-03T06:00:38;14.63;;;4.50;;
42246;SDS011;27913;42.722;23.268;2023-04-03T06:03:04;13.20;;;5.15;;
42246;SDS011;27913;42.722;23.268;2023-04-03T06:05:30;13.07;;;4.88;;
42246;SDS011;27913;42.722;23.268;2023-04-03T06:07:55;11.32;;;4.57;;
42246;SDS011;27913;42.722;23.268;2023-04-03T06:10:22;9.90;;;3.75;;
42246;SDS011;27913;42.722;23.268;2023-04-03T06:12:47;12.38;;;4.38;;
42246;SDS011;27913;42.722;23.268;2023-04-03T06:15:13;10.27;;;3.78;;
42246;SDS011;27913;42.722;23.268;2023-04-03T06:17:38;17.23;;;4.22;;
42246;SDS011;27913;42.722;23.268;2023-04-03T06:20:04;8.15;;;3.42;;
42246;SDS011;27913;42.722;23.268;2023-04-03T06:22:30;8.32;;;3.50;;
42246;SDS011;27913;42.722;23.268;2023-04-03T06:24:56;9.35;;;3.92;;
42246;SDS011;27913;42.722;23.268;2023-04-03T06:27:22;10.63;;;3.80;;
42246;SDS011;27913;42.722;23.268;2023-04-03T06:29:47;10.57;;;4.22;;
42246;SDS011;27913;42.722;23.268;2023-04-03T06:32:14;10.77;;;4.00;;
42246;SDS011;27913;42.722;23.268;2023-04-03T06:34:40;16.45;;;4.97;;
42246;SDS011;27913;42.722;23.268;2023-04-03T06:37:06;7.38;;;3.47;;
42246;SDS011;27913;42.722;23.268;2023-04-03T06:39:39;9.15;;;3.67;;
42246;SDS011;27913;42.722;23.268;2023-04-03T06:42:05;9.65;;;3.63;;
42246;SDS011;27913;42.722;23.268;2023-04-03T06:44:30;11.95;;;3.90;;
42246;SDS011;27913;42.722;23.268;2023-04-03T06:46:58;7.80;;;3.33;;
42246;SDS011;27913;42.722;23.268;2023-04-03T06:49:24;8.48;;;3.85;;
42246;SDS011;27913;42.722;23.268;2023-04-03T06:51:50;10.48;;;3.88;;
42246;SDS011;27913;42.722;23.268;2023-04-03T06:54:16;18.52;;;6.28;;
42246;SDS011;27913;42.722;23.268;2023-04-03T06:56:42;17.02;;;6.53;;
42246;SDS011;27913;42.722;23.268;2023-04-03T06:59:08;17.25;;;6.20;;
42246;SDS011;27913;42.722;23.268;2023-04-03T07:01:35;14.50;;;4.95;;
42246;SDS011;27913;42.722;23.268;2023-04-03T07:04:01;10.95;;;4.93;;
42246;SDS011;27913;42.722;23.268;2023-04-03T07:06:27;9.68;;;3.85;;
42246;SDS011;27913;42.722;23.268;2023-04-03T07:08:53;8.50;;;3.50;;
42246;SDS011;27913;42.722;23.268;2023-04-03T07:11:19;5.85;;;2.53;;
42246;SDS011;27913;42.722;23.268;2023-04-03T07:13:45;8.60;;;3.40;;
42246;SDS011;27913;42.722;23.268;2023-04-03T07:16:11;6.63;;;2.47;;
42246;SDS011;27913;42.722;23.268;2023-04-03T07:18:36;7.85;;;2.60;;
42246;SDS011;27913;42.722;23.268;2023-04-03T07:21:02;7.35;;;2.88;;
42246;SDS011;27913;42.722;23.268;2023-04-03T07:23:28;7.93;;;3.00;;
42246;SDS011;27913;42.722;23.268;2023-04-03T07:25:54;8.55;;;3.33;;
42246;SDS011;27913;42.722;23.268;2023-04-03T07:28:20;5.72;;;2.17;;
42246;SDS011;27913;42.722;23.268;2023-04-03T07:31:10;8.50;;;3.20;;
42246;SDS011;27913;42.722;23.268;2023-04-03T07:33:37;7.50;;;2.65;;
42246;SDS011;27913;42.722;23.268;2023-04-03T07:36:03;8.05;;;3.45;;
42246;SDS011;27913;42.722;23.268;2023-04-03T07:38:31;8.60;;;2.78;;
42246;SDS011;27913;42.722;23.268;2023-04-03T07:40:57;7.90;;;2.97;;
42246;SDS011;27913;42.722;23.268;2023-04-03T07:43:23;10.23;;;3.20;;
42246;SDS011;27913;42.722;23.268;2023-04-03T07:45:50;7.47;;;2.38;;
42246;SDS011;27913;42.722;23.268;2023-04-03T07:48:16;8.10;;;2.33;;
42246;SDS011;27913;42.722;23.268;2023-04-03T07:50:43;10.90;;;3.20;;
42246;SDS011;27913;42.722;23.268;2023-04-03T07:53:09;9.63;;;3.00;;
42246;SDS011;27913;42.722;23.268;2023-04-03T07:55:35;7.47;;;2.80;;
42246;SDS011;27913;42.722;23.268;2023-04-03T07:58:07;13.50;;;3.55;;
42246;SDS011;27913;42.722;23.268;2023-04-03T08:00:38;8.13;;;2.20;;
42246;SDS011;27913;42.722;23.268;2023-04-03T08:03:04;6.15;;;2.38;;
42246;SDS011;27913;42.722;23.268;2023-04-03T08:05:30;7.80;;;3.15;;
42246;SDS011;27913;42.722;23.268;2023-04-03T08:07:56;9.10;;;4.05;;
42246;SDS011;27913;42.722;23.268;2023-04-03T08:10:22;8.50;;;3.97;;
42246;SDS011;27913;42.722;23.268;2023-04-03T08:12:48;9.02;;;3.80;;
42246;SDS011;27913;42.722;23.268;2023-04-03T08:15:13;9.23;;;3.75;;
42246;SDS011;27913;42.722;23.268;2023-04-03T08:17:39;7.32;;;3.05;;
42246;SDS011;27913;42.722;23.268;2023-04-03T08:20:05;7.00;;;3.15;;
42246;SDS011;27913;42.722;23.268;2023-04-03T08:22:32;10.82;;;3.58;;
42246;SDS011;27913;42.722;23.268;2023-04-03T08:24:58;8.73;;;3.38;;
42246;SDS011;27913;42.722;23.268;2023-04-03T08:27:23;8.27;;;3.65;;
42246;SDS011;27913;42.722;23.268;2023-04-03T08:29:49;12.18;;;4.57;;
42246;SDS011;27913;42.722;23.268;2023-04-03T08:32:14;8.95;;;4.45;;
42246;SDS011;27913;42.722;23.268;2023-04-03T08:34:40;9.88;;;3.95;;
42246;SDS011;27913;42.722;23.268;2023-04-03T08:37:06;11.80;;;4.88;;
42246;SDS011;27913;42.722;23.268;2023-04-03T08:39:32;14.80;;;5.00;;
42246;SDS011;27913;42.722;23.268;2023-04-03T08:41:57;9.13;;;4.18;;
42246;SDS011;27913;42.722;23.268;2023-04-03T08:47:13;8.27;;;4.47;;
42246;SDS011;27913;42.722;23.268;2023-04-03T08:49:43;12.65;;;5.25;;
42246;SDS011;27913;42.722;23.268;2023-04-03T08:52:15;12.73;;;5.13;;
42246;SDS011;27913;42.722;23.268;2023-04-03T08:55:07;9.60;;;4.53;;
42246;SDS011;27913;42.722;23.268;2023-04-03T08:57:43;7.00;;;3.83;;
42246;SDS011;27913;42.722;23.268;2023-04-03T09:02:43;9.10;;;4.38;;
42246;SDS011;27913;42.722;23.268;2023-04-03T09:05:15;11.10;;;4.40;;
42246;SDS011;27913;42.722;23.268;2023-04-03T09:07:51;8.68;;;4.13;;
42246;SDS011;27913;42.722;23.268;2023-04-03T09:10:24;10.95;;;4.40;;
42246;SDS011;27913;42.722;23.268;2023-04-03T09:13:02;13.00;;;4.35;;
42246;SDS011;27913;42.722;23.268;2023-04-03T09:15:45;12.50;;;4.28;;
42246;SDS011;27913;42.722;23.268;2023-04-03T09:20:53;14.05;;;5.53;;
42246;SDS011;27913;42.722;23.268;2023-04-03T09:26:11;11.63;;;5.93;;
42246;SDS011;27913;42.722;23.268;2023-04-03T09:28:41;13.10;;;5.70;;
42246;SDS011;27913;42.722;23.268;2023-04-03T09:31:29;11.25;;;5.32;;
42246;SDS011;27913;42.722;23.268;2023-04-03T09:36:50;17.25;;;4.70;;
42246;SDS011;27913;42.722;23.268;2023-04-03T09:39:21;14.43;;;4.95;;
42246;SDS011;27913;42.722;23.268;2023-04-03T09:44:29;16.15;;;4.95;;
42246;SDS011;27913;42.722;23.268;2023-04-03T09:46:54;10.35;;;5.05;;
42246;SDS011;27913;42.722;23.268;2023-04-03T09:49:20;9.05;;;4.55;;
42246;SDS011;27913;42.722;23.268;2023-04-03T09:51:46;15.10;;;5.63;;
42246;SDS011;27913;42.722;23.268;2023-04-03T09:57:11;18.67;;;5.85;;
42246;SDS011;27913;42.722;23.268;2023-04-03T10:00:21;13.25;;;5.20;;
42246;SDS011;27913;42.722;23.268;2023-04-03T10:05:04;16.73;;;6.88;;
42246;SDS011;27913;42.722;23.268;2023-04-03T10:08:08;19.05;;;6.80;;
42246;SDS011;27913;42.722;23.268;2023-04-03T10:10:41;14.52;;;5.47;;
42246;SDS011;27913;42.722;23.268;2023-04-03T10:13:09;16.33;;;5.53;;
42246;SDS011;27913;42.722;23.268;2023-04-03T10:15:43;11.23;;;4.55;;
42246;SDS011;27913;42.722;23.268;2023-04-03T10:24:18;12.02;;;5.28;;
42246;SDS011;27913;42.722;23.268;2023-04-03T10:26:52;15.65;;;5.20;;
42246;SDS011;27913;42.722;23.268;2023-04-03T10:32:24;12.48;;;4.05;;
42246;SDS011;27913;42.722;23.268;2023-04-03T10:43:43;10.48;;;4.10;;
42246;SDS011;27913;42.722;23.268;2023-04-03T10:57:47;8.30;;;2.72;;
42246;SDS011;27913;42.722;23.268;2023-04-03T11:00:18;12.10;;;2.90;;
42246;SDS011;27913;42.722;23.268;2023-04-03T11:02:54;6.47;;;2.53;;
42246;SDS011;27913;42.722;23.268;2023-04-03T11:05:40;6.28;;;2.90;;
42246;SDS011;27913;42.722;23.268;2023-04-03T11:11:09;6.93;;;2.05;;
42246;SDS011;27913;42.722;23.268;2023-04-03T11:16:09;16.25;;;2.20;;
42246;SDS011;27913;42.722;23.268;2023-04-03T11:18:43;6.35;;;2.20;;
42246;SDS011;27913;42.722;23.268;2023-04-03T11:21:34;8.73;;;2.50;;
42246;SDS011;27913;42.722;23.268;2023-04-03T11:24:05;6.30;;;2.70;;
42246;SDS011;27913;42.722;23.268;2023-04-03T11:26:37;7.53;;;2.60;;
42246;SDS011;27913;42.722;23.268;2023-04-03T11:29:10;8.07;;;3.17;;
42246;SDS011;27913;42.722;23.268;2023-04-03T11:37:01;6.67;;;2.57;;
42246;SDS011;27913;42.722;23.268;2023-04-03T11:39:56;5.55;;;2.20;;
42246;SDS011;27913;42.722;23.268;2023-04-03T11:42:27;9.48;;;1.98;;
42246;SDS011;27913;42.722;23.268;2023-04-03T12:05:54;6.05;;;2.38;;
42246;SDS011;27913;42.722;23.268;2023-04-03T12:13:39;6.63;;;2.28;;
42246;SDS011;27913;42.722;23.268;2023-04-03T12:16:06;4.47;;;2.00;;
42246;SDS011;27913;42.722;23.268;2023-04-03T12:21:22;8.85;;;2.70;;
42246;SDS011;27913;42.722;23.268;2023-04-03T12:40:24;50.10;;;13.20;;
42246;SDS011;27913;42.722;23.268;2023-04-03T12:45:50;25.35;;;8.68;;
42246;SDS011;27913;42.722;23.268;2023-04-03T12:48:27;12.45;;;5.28;;
42246;SDS011;27913;42.722;23.268;2023-04-03T12:50:55;5.80;;;2.40;;
42246;SDS011;27913;42.722;23.268;2023-04-03T12:53:26;3.88;;;1.80;;
42246;SDS011;27913;42.722;23.268;2023-04-03T12:56:18;3.10;;;1.58;;
42246;SDS011;27913;42.722;23.268;2023-04-03T12:58:46;5.57;;;2.00;;
42246;SDS011;27913;42.722;23.268;2023-04-03T13:01:12;6.50;;;2.25;;
42246;SDS011;27913;42.722;23.268;2023-04-03T13:03:43;5.03;;;1.92;;
42246;SDS011;27913;42.722;23.268;2023-04-03T13:06:19;3.75;;;1.50;;
42246;SDS011;27913;42.722;23.268;2023-04-03T13:08:52;3.00;;;1.40;;
42246;SDS011;27913;42.722;23.268;2023-04-03T13:11:22;6.83;;;1.83;;
42246;SDS011;27913;42.722;23.268;2023-04-03T13:13:58;3.95;;;1.90;;
42246;SDS011;27913;42.722;23.268;2023-04-03T13:16:31;3.75;;;1.80;;
42246;SDS011;27913;42.722;23.268;2023-04-03T13:18:58;6.70;;;2.40;;
42246;SDS011;27913;42.722;23.268;2023-04-03T13:23:52;6.05;;;2.50;;
42246;SDS011;27913;42.722;23.268;2023-04-03T13:26:22;7.17;;;3.10;;
42246;SDS011;27913;42.722;23.268;2023-04-03T13:28:49;7.50;;;2.90;;
42246;SDS011;27913;42.722;23.268;2023-04-03T13:31:28;10.02;;;3.47;;
42246;SDS011;27913;42.722;23.268;2023-04-03T13:34:02;7.47;;;3.03;;
42246;SDS011;27913;42.722;23.268;2023-04-03T13:36:31;7.32;;;3.35;;
42246;SDS011;27913;42.722;23.268;2023-04-03T13:41:47;8.82;;;3.40;;
42246;SDS011;27913;42.722;23.268;2023-04-03T13:46:49;7.05;;;3.20;;
42246;SDS011;27913;42.722;23.268;2023-04-03T13:51:54;6.20;;;2.85;;
42246;SDS011;27913;42.722;23.268;2023-04-03T13:54:22;9.07;;;3.00;;
42246;SDS011;27913;42.722;23.268;2023-04-03T13:56:55;5.88;;;2.80;;
42246;SDS011;27913;42.722;23.268;2023-04-03T13:59:34;11.93;;;3.65;;
42246;SDS011;27913;42.722;23.268;2023-04-03T14:07:21;10.02;;;3.97;;
42246;SDS011;27913;42.722;23.268;2023-04-03T14:09:47;7.65;;;3.10;;
42246;SDS011;27913;42.722;23.268;2023-04-03T14:14:56;5.63;;;2.75;;
42246;SDS011;27913;42.722;23.268;2023-04-03T14:17:23;7.53;;;3.10;;
42246;SDS011;27913;42.722;23.268;2023-04-03T14:19:51;15.75;;;6.80;;
42246;SDS011;27913;42.722;23.268;2023-04-03T14:22:20;19.98;;;9.63;;
42246;SDS011;27913;42.722;23.268;2023-04-03T14:24:56;11.63;;;6.03;;
42246;SDS011;27913;42.722;23.268;2023-04-03T14:27:23;11.00;;;4.25;;
42246;SDS011;27913;42.722;23.268;2023-04-03T14:29:52;11.15;;;4.13;;
42246;SDS011;27913;42.722;23.268;2023-04-03T14:32:19;11.50;;;4.57;;
42246;SDS011;27913;42.722;23.268;2023-04-03T14:34:46;11.82;;;4.18;;
42246;SDS011;27913;42.722;23.268;2023-04-03T14:37:13;12.52;;;5.13;;
42246;SDS011;27913;42.722;23.268;2023-04-03T14:39:42;10.23;;;3.67;;
42246;SDS011;27913;42.722;23.268;2023-04-03T14:42:16;11.13;;;4.80;;
42246;SDS011;27913;42.722;23.268;2023-04-03T14:44:46;11.80;;;4.35;;
42246;SDS011;27913;42.722;23.268;2023-04-03T14:47:13;16.55;;;6.25;;
42246;SDS011;27913;42.722;23.268;2023-04-03T14:49:40;11.13;;;4.50;;
42246;SDS011;27913;42.722;23.268;2023-04-03T14:52:06;9.95;;;4.05;;
42246;SDS011;27913;42.722;23.268;2023-04-03T14:54:40;22.65;;;6.57;;
42246;SDS011;27913;42.722;23.268;2023-04-03T14:57:08;27.27;;;9.27;;
42246;SDS011;27913;42.722;23.268;2023-04-03T14:59:37;29.25;;;9.25;;
42246;SDS011;27913;42.722;23.268;2023-04-03T15:02:25;57.63;;;16.65;;
42246;SDS011;27913;42.722;23.268;2023-04-03T15:05:02;38.30;;;11.63;;
42246;SDS011;27913;42.722;23.268;2023-04-03T15:07:32;47.15;;;11.95;;
42246;SDS011;27913;42.722;23.268;2023-04-03T15:10:14;36.25;;;10.77;;
42246;SDS011;27913;42.722;23.268;2023-04-03T15:12:40;24.42;;;8.32;;
42246;SDS011;27913;42.722;23.268;2023-04-03T15:15:06;25.20;;;7.63;;
42246;SDS011;27913;42.722;23.268;2023-04-03T15:17:32;13.52;;;4.68;;
42246;SDS011;27913;42.722;23.268;2023-04-03T15:19:59;15.30;;;6.40;;
42246;SDS011;27913;42.722;23.268;2023-04-03T15:22:25;9.50;;;4.32;;
42246;SDS011;27913;42.722;23.268;2023-04-03T15:24:50;13.27;;;4.60;;
42246;SDS011;27913;42.722;23.268;2023-04-03T15:27:16;8.93;;;4.45;;
42246;SDS011;27913;42.722;23.268;2023-04-03T15:29:42;8.32;;;4.18;;
42246;SDS011;27913;42.722;23.268;2023-04-03T15:32:08;4.90;;;2.35;;
42246;SDS011;27913;42.722;23.268;2023-04-03T15:34:35;6.07;;;2.42;;
42246;SDS011;27913;42.722;23.268;2023-04-03T15:37:01;6.03;;;2.83;;
42246;SDS011;27913;42.722;23.268;2023-04-03T15:39:26;6.28;;;2.90;;
42246;SDS011;27913;42.722;23.268;2023-04-03T15:41:52;7.20;;;2.78;;
42246;SDS011;27913;42.722;23.268;2023-04-03T15:44:18;7.55;;;2.85;;
42246;SDS011;27913;42.722;23.268;2023-04-03T15:46:45;7.82;;;2.67;;
42246;SDS011;27913;42.722;23.268;2023-04-03T15:49:12;12.30;;;3.83;;
42246;SDS011;27913;42.722;23.268;2023-04-03T15:51:38;6.40;;;3.10;;
42246;SDS011;27913;42.722;23.268;2023-04-03T15:54:03;8.40;;;2.85;;
42246;SDS011;27913;42.722;23.268;2023-04-03T15:56:29;6.55;;;3.03;;
42246;SDS011;27913;42.722;23.268;2023-04-03T15:58:54;8.48;;;3.17;;
42246;SDS011;27913;42.722;23.268;2023-04-03T16:01:20;6.78;;;3.17;;
42246;SDS011;27913;42.722;23.268;2023-04-03T16:03:46;5.85;;;3.20;;
42246;SDS011;27913;42.722;23.268;2023-04-03T16:06:15;6.65;;;2.80;;
42246;SDS011;27913;42.722;23.268;2023-04-03T16:08:43;6.75;;;3.03;;
42246;SDS011;27913;42.722;23.268;2023-04-03T16:11:09;7.53;;;3.40;;
42246;SDS011;27913;42.722;23.268;2023-04-03T16:13:35;7.25;;;3.40;;
42246;SDS011;27913;42.722;23.268;2023-04-03T16:16:00;6.40;;;2.95;;
42246;SDS011;27913;42.722;23.268;2023-04-03T16:18:27;8.90;;;3.40;;
42246;SDS011;27913;42.722;23.268;2023-04-03T16:20:53;8.07;;;3.42;;
42246;SDS011;27913;42.722;23.268;2023-04-03T16:23:18;7.28;;;2.70;;
42246;SDS011;27913;42.722;23.268;2023-04-03T16:25:44;9.00;;;2.50;;
42246;SDS011;27913;42.722;23.268;2023-04-03T16:28:11;4.90;;;2.05;;
42246;SDS011;27913;42.722;23.268;2023-04-03T16:30:40;6.90;;;3.30;;
42246;SDS011;27913;42.722;23.268;2023-04-03T16:33:06;7.40;;;3.80;;
42246;SDS011;27913;42.722;23.268;2023-04-03T16:35:33;6.72;;;2.92;;
42246;SDS011;27913;42.722;23.268;2023-04-03T16:37:59;5.25;;;2.40;;
42246;SDS011;27913;42.722;23.268;2023-04-03T16:40:25;8.10;;;3.55;;
42246;SDS011;27913;42.722;23.268;2023-04-03T16:42:50;8.07;;;3.78;;
42246;SDS011;27913;42.722;23.268;2023-04-03T16:45:16;9.38;;;4.05;;
42246;SDS011;27913;42.722;23.268;2023-04-03T16:47:42;9.93;;;3.60;;
42246;SDS011;27913;42.722;23.268;2023-04-03T16:50:07;13.48;;;4.15;;
42246;SDS011;27913;42.722;23.268;2023-04-03T16:52:33;8.98;;;3.70;;
42246;SDS011;27913;42.722;23.268;2023-04-03T16:54:59;8.52;;;3.40;;
42246;SDS011;27913;42.722;23.268;2023-04-03T16:57:24;7.55;;;3.53;;
42246;SDS011;27913;42.722;23.268;2023-04-03T16:59:50;7.47;;;3.45;;